Time;durP1;ratioP1;P1;durP2;ratioP2;P2;SDS_P1;SDS_P2;PMS_P1;PMS_P2;Temp;Humidity;BMP_temperature;BMP_pressure;BME280_temperature;BME280_humidity;BME280_pressure;Samples;Min_cycle;Max_cycle;Signal;HPM_P1;HPM_P2
2021/03/04 00:00:37;;;;;;;102.40;57.00;;;;;;;2.05;84.21;100563.77;99433;1169;66873;-68
2021/03/04 00:02:53;;;;;;;106.85;57.10;;;;;;;2.08;84.15;100560.84;99436;1175;87969;-62
2021/03/04 00:04:58;;;;;;;98.90;57.35;;;;;;;2.11;84.26;100550.78;99445;1173;75034;-62
2021/03/04 00:07:04;;;;;;;103.90;58.00;;;;;;;2.15;84.23;100551.33;99440;1175;90119;-68
2021/03/04 00:09:10;;;;;;;105.00;56.10;;;;;;;2.17;84.31;100546.74;99429;1175;83168;-69
2021/03/04 00:11:16;;;;;;;104.20;56.80;;;;;;;2.18;84.61;100540.41;99438;1175;66996;-62
2021/03/04 00:13:22;;;;;;;105.15;55.10;;;;;;;2.22;84.27;100531.19;99440;1172;87597;-62
2021/03/04 00:15:31;;;;;;;100.60;55.50;;;;;;;2.24;84.35;100524.75;99449;1168;75974;-63
2021/03/04 00:17:37;;;;;;;99.70;54.30;;;;;;;2.24;84.29;100523.90;99440;1175;89312;-62
2021/03/04 00:19:43;;;;;;;98.70;54.30;;;;;;;2.26;84.24;100520.13;99415;1175;81758;-62
2021/03/04 00:21:49;;;;;;;99.85;54.20;;;;;;;2.29;84.22;100517.20;99436;1175;66939;-62
2021/03/04 00:23:54;;;;;;;98.70;54.70;;;;;;;2.31;84.31;100517.05;99435;1175;88136;-60
2021/03/04 00:26:00;;;;;;;101.20;56.20;;;;;;;2.36;84.21;100512.19;99460;1171;76160;-61
2021/03/04 00:28:07;;;;;;;96.40;52.30;;;;;;;2.35;84.25;100507.81;99437;1174;89389;-61
2021/03/04 00:30:17;;;;;;;97.90;54.30;;;;;;;2.34;84.11;100509.63;99435;1174;83046;-61
2021/03/04 00:32:23;;;;;;;91.40;53.40;;;;;;;2.31;83.90;100496.58;99441;1167;67061;-61
2021/03/04 00:34:29;;;;;;;94.10;51.40;;;;;;;2.29;84.07;100506.53;99427;1175;86818;-61
2021/03/04 00:36:35;;;;;;;93.90;53.63;;;;;;;2.25;83.95;100504.28;99442;1167;75334;-67
2021/03/04 00:38:44;;;;;;;92.50;51.95;;;;;;;2.24;84.24;100507.91;99442;1168;89185;-68
2021/03/04 00:40:49;;;;;;;97.15;54.40;;;;;;;2.21;84.11;100503.69;99417;1167;82198;-61
2021/03/04 00:42:55;;;;;;;96.20;55.80;;;;;;;2.22;83.97;100512.54;99442;1175;67085;-66
2021/03/04 00:45:01;;;;;;;94.05;54.50;;;;;;;2.22;83.86;100497.40;99438;1175;87091;-66
2021/03/04 00:47:07;;;;;;;94.40;55.30;;;;;;;2.27;84.08;100500.50;99445;1167;74482;-68
2021/03/04 00:49:13;;;;;;;96.50;54.90;;;;;;;2.36;84.20;100485.53;99437;1175;88785;-69
2021/03/04 00:51:19;;;;;;;95.90;52.85;;;;;;;2.40;83.93;100486.92;99428;1175;81421;-61
2021/03/04 00:53:25;;;;;;;95.85;52.85;;;;;;;2.43;84.08;100480.48;99457;1168;67035;-61
2021/03/04 00:55:31;;;;;;;93.15;53.70;;;;;;;2.48;84.12;100464.91;99432;1168;86921;-61
2021/03/04 00:57:37;;;;;;;96.20;55.30;;;;;;;2.53;83.92;100471.52;99450;1171;75151;-67
2021/03/04 00:59:43;;;;;;;96.65;54.35;;;;;;;2.58;83.95;100463.14;99443;1175;89880;-67
2021/03/04 01:01:49;;;;;;;93.80;53.00;;;;;;;2.61;83.97;100463.69;99423;1168;82275;-62
2021/03/04 01:03:54;;;;;;;93.75;53.45;;;;;;;2.64;84.17;100466.08;99448;1168;66992;-61
2021/03/04 01:06:00;;;;;;;92.50;53.00;;;;;;;2.64;84.02;100463.41;99437;1175;87742;-67
2021/03/04 01:08:07;;;;;;;92.30;54.60;;;;;;;2.64;83.84;100463.41;99452;1168;75363;-68
2021/03/04 01:10:20;;;;;;;98.85;52.55;;;;;;;2.67;83.90;100456.95;99432;1167;89640;-67
2021/03/04 01:12:26;;;;;;;93.30;52.90;;;;;;;2.70;83.79;100452.20;99439;1175;81941;-67
2021/03/04 01:14:32;;;;;;;92.15;51.00;;;;;;;2.71;83.83;100445.90;99434;1167;66873;-67
2021/03/04 01:16:37;;;;;;;93.93;52.67;;;;;;;2.70;83.67;100454.88;99436;1175;87015;-61
2021/03/04 01:18:43;;;;;;;93.10;53.30;;;;;;;2.70;83.78;100436.20;99443;1171;74529;-61
2021/03/04 01:20:49;;;;;;;90.20;52.00;;;;;;;2.69;83.74;100439.02;99446;1171;89702;-61
2021/03/04 01:22:55;;;;;;;88.53;52.30;;;;;;;2.67;83.77;100428.47;99422;1172;82185;-68
2021/03/04 01:25:01;;;;;;;86.60;50.10;;;;;;;2.67;83.61;100436.47;99439;1171;67079;-68
2021/03/04 01:27:07;;;;;;;93.67;51.07;;;;;;;2.64;83.58;100427.89;99439;1168;87034;-68
2021/03/04 01:29:13;;;;;;;87.60;50.60;;;;;;;2.63;83.64;100424.41;99443;1175;76049;-69
2021/03/04 01:31:19;;;;;;;88.40;50.00;;;;;;;2.63;83.57;100424.41;99446;1171;89227;-68
2021/03/04 01:33:25;;;;;;;81.85;49.50;;;;;;;2.60;83.65;100419.35;99434;1168;82832;-62
2021/03/04 01:35:31;;;;;;;81.80;47.50;;;;;;;2.59;83.47;100422.14;99443;1175;67109;-61
2021/03/04 01:37:38;;;;;;;87.70;48.50;;;;;;;2.56;84.03;100411.75;99436;1175;87598;-68
2021/03/04 01:39:43;;;;;;;86.70;48.40;;;;;;;2.50;83.25;100404.33;99447;1168;76306;-69
2021/03/04 01:41:53;;;;;;;81.60;46.40;;;;;;;2.46;83.57;100401.08;99446;1167;88993;-69
2021/03/04 01:43:59;;;;;;;78.70;46.10;;;;;;;2.48;83.51;100403.59;99421;1175;82186;-69
2021/03/04 01:46:05;;;;;;;88.30;49.80;;;;;;;2.41;83.44;100397.98;99437;1175;66827;-61
2021/03/04 01:48:12;;;;;;;84.80;48.90;;;;;;;2.39;83.27;100405.26;99443;1175;87577;-67
2021/03/04 01:50:19;;;;;;;77.85;46.55;;;;;;;2.34;83.58;100403.02;99449;1175;75715;-67
2021/03/04 01:52:25;;;;;;;84.85;46.75;;;;;;;2.30;83.53;100396.29;99445;1175;89369;-68
2021/03/04 01:54:31;;;;;;;84.80;46.40;;;;;;;2.31;83.63;100386.44;99413;1175;82964;-68
2021/03/04 01:56:37;;;;;;;79.80;44.60;;;;;;;2.26;83.52;100384.20;99449;1175;67033;-68
2021/03/04 01:58:43;;;;;;;79.80;43.80;;;;;;;2.25;83.44;100379.02;99444;1168;86624;-68
2021/03/04 02:00:49;;;;;;;77.20;45.40;;;;;;;2.25;83.36;100376.36;99448;1175;75512;-68
2021/03/04 02:02:54;;;;;;;76.30;45.60;;;;;;;2.22;83.56;100376.63;99443;1175;89300;-61
2021/03/04 02:05:00;;;;;;;81.40;44.10;;;;;;;2.20;83.38;100374.08;99424;1175;82542;-61
2021/03/04 02:07:17;;;;;;;81.00;46.40;;;;;;;2.18;83.41;100368.05;99449;1171;66967;-68
2021/03/04 02:09:26;;;;;;;78.20;44.70;;;;;;;2.23;83.55;100368.48;99428;1171;87098;-68
2021/03/04 02:11:38;;;;;;;75.20;42.80;;;;;;;2.22;83.67;100361.48;99448;1175;75940;-69
2021/03/04 02:13:50;;;;;;;79.70;44.70;;;;;;;2.21;83.55;100358.94;99451;1168;88613;-69
2021/03/04 02:16:04;;;;;;;81.97;43.93;;;;;;;2.17;83.52;100363.69;99414;1168;82357;-61
2021/03/04 02:18:15;;;;;;;73.45;43.50;;;;;;;2.14;83.53;100357.81;99446;1175;67179;-61
2021/03/04 02:20:34;;;;;;;73.70;42.80;;;;;;;2.12;83.55;100360.59;99447;1175;87398;-61
2021/03/04 02:23:01;;;;;;;79.00;43.55;;;;;;;2.10;83.42;100354.58;99450;1171;75023;-61
2021/03/04 02:25:13;;;;;;;72.70;42.20;;;;;;;2.10;83.50;100348.39;99440;1175;89223;-61
2021/03/04 02:27:24;;;;;;;74.75;41.35;;;;;;;2.09;83.60;100349.36;99413;1175;83047;-61
2021/03/04 02:29:36;;;;;;;73.85;42.20;;;;;;;2.04;83.24;100338.28;99429;1167;67050;-61
2021/03/04 02:31:43;;;;;;;76.20;43.00;;;;;;;2.01;83.54;100341.21;99428;1175;87544;-68
2021/03/04 02:33:50;;;;;;;69.75;40.80;;;;;;;1.98;83.60;100333.52;99454;1168;75105;-68
2021/03/04 02:36:00;;;;;;;75.05;41.70;;;;;;;1.94;83.41;100340.93;99451;1175;89362;-61
2021/03/04 02:38:11;;;;;;;71.80;41.65;;;;;;;1.94;83.57;100338.27;99429;1172;82208;-69
2021/03/04 02:40:21;;;;;;;70.10;41.15;;;;;;;1.95;83.76;100336.45;99437;1175;67116;-69
2021/03/04 02:42:28;;;;;;;70.00;40.50;;;;;;;1.95;83.50;100331.13;99445;1175;87830;-68
2021/03/04 02:44:34;;;;;;;72.60;40.30;;;;;;;1.95;83.68;100333.79;99448;1174;75339;-69
2021/03/04 02:46:42;;;;;;;72.50;39.60;;;;;;;1.98;83.74;100336.19;99445;1171;89368;-68
2021/03/04 02:48:48;;;;;;;70.65;40.95;;;;;;;2.02;83.94;100332.25;99426;1175;83158;-68
2021/03/04 02:50:54;;;;;;;72.30;40.40;;;;;;;2.07;83.92;100320.20;99456;1173;66841;-69
2021/03/04 02:53:01;;;;;;;74.10;41.40;;;;;;;2.14;83.98;100323.99;99427;1171;87761;-61
2021/03/04 02:55:13;;;;;;;70.75;40.15;;;;;;;2.22;83.89;100316.18;99436;1168;76111;-61
2021/03/04 02:57:25;;;;;;;77.20;41.60;;;;;;;2.27;83.99;100321.09;99441;1175;89143;-69
2021/03/04 02:59:32;;;;;;;71.40;39.70;;;;;;;2.26;83.87;100316.73;99424;1175;81852;-69
2021/03/04 03:01:41;;;;;;;71.00;41.20;;;;;;;2.29;83.75;100316.45;99441;1171;66931;-61
2021/03/04 03:03:48;;;;;;;67.97;38.23;;;;;;;2.27;83.81;100319.27;99440;1175;87678;-61
2021/03/04 03:05:58;;;;;;;72.30;39.50;;;;;;;2.28;83.58;100317.45;99451;1171;75169;-61
2021/03/04 03:08:08;;;;;;;68.00;38.90;;;;;;;2.28;83.90;100307.61;99440;1175;88320;-69
2021/03/04 03:10:17;;;;;;;75.70;40.90;;;;;;;2.33;83.89;100304.55;99438;1171;83165;-69
2021/03/04 03:12:24;;;;;;;66.00;37.60;;;;;;;2.32;83.71;100295.70;99441;1175;66882;-68
2021/03/04 03:14:31;;;;;;;68.80;38.60;;;;;;;2.33;83.79;100293.89;99437;1167;88159;-67
2021/03/04 03:16:37;;;;;;;64.10;36.90;;;;;;;2.32;83.67;100292.19;99447;1175;74878;-61
2021/03/04 03:18:43;;;;;;;67.15;37.65;;;;;;;2.32;83.73;100285.05;99435;1171;89880;-61
2021/03/04 03:20:49;;;;;;;60.65;35.65;;;;;;;2.32;83.91;100294.86;99423;1175;82978;-61
2021/03/04 03:22:58;;;;;;;68.90;36.60;;;;;;;2.34;83.75;100298.21;99457;1175;67009;-61
2021/03/04 03:25:06;;;;;;;70.07;38.80;;;;;;;2.35;83.69;100289.25;99433;1175;87565;-61
2021/03/04 03:27:12;;;;;;;71.10;38.35;;;;;;;2.31;83.65;100290.49;99444;1174;75675;-63
2021/03/04 03:29:18;;;;;;;65.57;36.17;;;;;;;2.27;83.75;100278.45;99423;1171;89086;-61
2021/03/04 03:31:25;;;;;;;70.00;36.70;;;;;;;2.25;83.48;100280.42;99424;1168;82237;-67
2021/03/04 03:33:35;;;;;;;70.85;39.05;;;;;;;2.24;83.64;100276.05;99443;1168;67141;-62
2021/03/04 03:35:41;;;;;;;65.40;35.80;;;;;;;2.25;83.55;100269.76;99428;1175;87540;-62
2021/03/04 03:37:48;;;;;;;64.60;37.40;;;;;;;2.22;83.50;100280.69;99444;1171;74984;-70
2021/03/04 03:39:56;;;;;;;59.35;35.00;;;;;;;2.18;83.59;100274.79;99437;1171;88797;-69
2021/03/04 03:42:03;;;;;;;67.25;35.90;;;;;;;2.15;83.42;100264.41;99428;1175;82578;-62
2021/03/04 03:44:11;;;;;;;63.90;35.60;;;;;;;2.13;83.96;100269.04;99442;1167;66932;-62
2021/03/04 03:46:21;;;;;;;63.70;36.40;;;;;;;2.15;83.72;100264.41;99440;1171;87876;-62
2021/03/04 03:48:30;;;;;;;62.10;35.00;;;;;;;2.13;83.63;100266.38;99454;1175;74493;-62
2021/03/04 03:50:39;;;;;;;58.00;34.50;;;;;;;2.12;83.63;100264.68;99446;1171;89747;-69
2021/03/04 03:52:49;;;;;;;62.80;35.95;;;;;;;2.10;83.73;100252.48;99418;1175;82556;-62
2021/03/04 03:54:55;;;;;;;59.50;34.70;;;;;;;2.07;83.60;100242.95;99440;1175;67118;-62
2021/03/04 03:57:05;;;;;;;62.50;35.10;;;;;;;2.08;83.61;100243.79;99437;1175;87461;-69
2021/03/04 03:59:12;;;;;;;60.60;34.27;;;;;;;2.08;83.32;100241.13;99439;1174;76030;-69
2021/03/04 04:01:21;;;;;;;62.50;36.25;;;;;;;2.09;83.79;100242.80;99429;1174;89387;-69
2021/03/04 04:03:27;;;;;;;61.37;36.80;;;;;;;2.12;83.81;100239.85;99419;1174;82208;-70
2021/03/04 04:05:33;;;;;;;63.50;35.20;;;;;;;2.13;83.77;100229.07;99440;1174;67073;-62
2021/03/04 04:07:40;;;;;;;64.17;36.47;;;;;;;2.16;83.63;100230.61;99435;1171;87147;-62
2021/03/04 04:09:47;;;;;;;60.90;34.40;;;;;;;2.21;83.98;100226.55;99445;1171;75734;-62
2021/03/04 04:11:53;;;;;;;63.30;34.50;;;;;;;2.23;83.84;100227.24;99437;1174;89166;-62
2021/03/04 04:13:59;;;;;;;59.90;33.20;;;;;;;2.24;84.05;100228.94;99424;1167;82534;-63
2021/03/04 04:16:07;;;;;;;60.40;34.50;;;;;;;2.24;83.59;100228.09;99439;1171;67127;-62
2021/03/04 04:18:13;;;;;;;62.00;33.40;;;;;;;2.22;83.78;100228.24;99440;1174;87399;-70
2021/03/04 04:20:21;;;;;;;62.10;34.65;;;;;;;2.26;83.88;100221.63;99453;1168;75060;-70
2021/03/04 04:22:31;;;;;;;58.00;33.35;;;;;;;2.29;84.08;100221.36;99440;1175;89474;-61
2021/03/04 04:24:37;;;;;;;60.30;33.10;;;;;;;2.34;84.14;100216.44;99421;1171;82160;-62
2021/03/04 04:26:46;;;;;;;62.10;34.30;;;;;;;2.39;83.96;100213.34;99445;1168;66880;-61
2021/03/04 04:28:55;;;;;;;58.55;34.15;;;;;;;2.44;83.91;100212.93;99433;1174;87490;-61
2021/03/04 04:31:00;;;;;;;59.97;33.47;;;;;;;2.48;84.03;100220.48;99439;1168;74778;-71
2021/03/04 04:33:07;;;;;;;57.00;32.95;;;;;;;2.50;83.73;100215.03;99441;1174;89576;-71
2021/03/04 04:35:17;;;;;;;59.00;33.45;;;;;;;2.50;83.54;100202.52;99420;1168;81555;-70
2021/03/04 04:37:26;;;;;;;58.00;31.80;;;;;;;2.55;83.91;100210.11;99454;1174;66901;-61
2021/03/04 04:39:31;;;;;;;64.05;34.55;;;;;;;2.53;83.83;100210.23;99439;1171;86877;-62
2021/03/04 04:41:37;;;;;;;56.00;33.00;;;;;;;2.55;83.85;100213.63;99445;1171;75254;-61
2021/03/04 04:43:43;;;;;;;58.15;31.90;;;;;;;2.57;83.77;100203.65;99434;1174;89980;-61
2021/03/04 04:45:49;;;;;;;64.60;33.13;;;;;;;2.55;83.80;100202.11;99429;1171;82937;-71
2021/03/04 04:47:55;;;;;;;58.80;33.30;;;;;;;2.53;83.95;100204.09;99445;1174;67074;-69
2021/03/04 04:50:01;;;;;;;61.90;32.75;;;;;;;2.47;83.60;100199.32;99439;1174;87871;-71
2021/03/04 04:52:07;;;;;;;60.05;32.20;;;;;;;2.45;83.58;100203.93;99438;1171;75950;-68
2021/03/04 04:54:13;;;;;;;55.25;32.35;;;;;;;2.40;83.61;100199.03;99446;1174;88773;-68
2021/03/04 04:56:20;;;;;;;59.80;32.50;;;;;;;2.38;83.67;100195.68;99428;1168;82767;-68
2021/03/04 04:58:25;;;;;;;58.35;33.15;;;;;;;2.39;83.64;100192.02;99441;1174;66932;-67
2021/03/04 05:00:31;;;;;;;61.40;34.70;;;;;;;2.39;83.83;100194.67;99443;1168;87537;-68
2021/03/04 05:02:37;;;;;;;59.10;33.30;;;;;;;2.45;83.92;100186.12;99445;1171;74627;-67
2021/03/04 05:04:43;;;;;;;55.85;33.45;;;;;;;2.50;83.97;100178.52;99441;1174;89242;-68
2021/03/04 05:06:49;;;;;;;59.20;34.85;;;;;;;2.63;84.08;100173.75;99439;1171;82036;-70
2021/03/04 05:08:54;;;;;;;54.90;32.75;;;;;;;2.74;84.04;100175.40;99434;1174;66951;-69
2021/03/04 05:11:03;;;;;;;60.95;34.00;;;;;;;2.83;84.10;100170.02;99434;1171;86426;-68
2021/03/04 05:13:09;;;;;;;60.00;34.95;;;;;;;2.94;84.05;100174.33;99441;1174;75809;-61
2021/03/04 05:15:15;;;;;;;56.25;31.80;;;;;;;2.99;84.14;100164.90;99443;1174;89978;-62
2021/03/04 05:17:21;;;;;;;61.15;34.75;;;;;;;3.04;83.91;100164.48;99428;1171;82110;-62
2021/03/04 05:19:28;;;;;;;58.70;34.10;;;;;;;3.11;83.86;100157.55;99456;1167;67094;-61
2021/03/04 05:21:34;;;;;;;59.20;33.80;;;;;;;3.18;83.78;100152.48;99442;1174;87471;-68
2021/03/04 05:23:39;;;;;;;59.10;32.70;;;;;;;3.21;83.74;100149.52;99445;1174;75664;-68
2021/03/04 05:25:45;;;;;;;56.40;33.50;;;;;;;3.23;83.82;100144.86;99456;1171;88406;-68
2021/03/04 05:27:51;;;;;;;55.75;33.50;;;;;;;3.22;83.85;100138.67;99442;1171;81866;-61
2021/03/04 05:29:56;;;;;;;56.60;32.05;;;;;;;3.22;83.65;100137.83;99455;1174;67409;-61
2021/03/04 05:32:08;;;;;;;58.10;32.90;;;;;;;3.25;83.60;100137.53;99436;1167;87913;-61
2021/03/04 05:34:16;;;;;;;56.60;32.50;;;;;;;3.27;83.47;100148.92;99454;1174;75986;-61
2021/03/04 05:36:23;;;;;;;56.35;31.95;;;;;;;3.26;83.35;100149.90;99444;1174;89982;-66
2021/03/04 05:38:29;;;;;;;58.60;33.50;;;;;;;3.24;83.45;100141.21;99428;1171;81319;-67
2021/03/04 05:40:35;;;;;;;60.30;33.60;;;;;;;3.24;83.66;100149.22;99444;1174;67069;-67
2021/03/04 05:42:44;;;;;;;54.20;32.15;;;;;;;3.24;83.41;100135.88;99434;1174;87534;-67
2021/03/04 05:44:51;;;;;;;56.30;32.80;;;;;;;3.24;83.33;100135.88;99442;1174;75404;-68
2021/03/04 05:47:00;;;;;;;59.10;33.50;;;;;;;3.23;83.60;100140.37;99440;1174;89420;-66
2021/03/04 05:49:11;;;;;;;56.50;32.10;;;;;;;3.21;83.29;100142.35;99428;1171;81411;-67
2021/03/04 05:51:22;;;;;;;56.00;32.30;;;;;;;3.17;83.27;100140.95;99436;1168;66863;-68
2021/03/04 05:53:33;;;;;;;56.20;32.15;;;;;;;3.18;83.44;100144.47;99436;1168;87985;-61
2021/03/04 05:55:39;;;;;;;50.30;31.00;;;;;;;3.18;83.45;100139.98;99454;1175;75857;-61
2021/03/04 05:57:47;;;;;;;55.65;31.80;;;;;;;3.18;83.38;100144.47;99445;1174;89681;-69
2021/03/04 05:59:55;;;;;;;54.50;31.70;;;;;;;3.24;83.38;100141.21;99421;1168;82604;-67
2021/03/04 06:02:05;;;;;;;52.75;31.05;;;;;;;3.31;83.54;100148.47;99452;1174;66989;-66
2021/03/04 06:04:12;;;;;;;51.65;29.00;;;;;;;3.40;83.39;100147.58;99436;1171;87792;-67
2021/03/04 06:06:22;;;;;;;51.47;29.83;;;;;;;3.47;83.39;100148.64;99448;1174;74687;-67
2021/03/04 06:08:28;;;;;;;51.85;30.35;;;;;;;3.58;83.19;100147.59;99441;1174;89530;-67
2021/03/04 06:10:35;;;;;;;46.35;28.70;;;;;;;3.72;83.86;100152.41;99424;1174;83080;-69
2021/03/04 06:12:41;;;;;;;48.57;30.10;;;;;;;3.82;83.25;100150.50;99447;1171;66957;-61
2021/03/04 06:14:50;;;;;;;48.75;30.45;;;;;;;3.97;83.43;100137.45;99432;1174;87833;-61
2021/03/04 06:16:56;;;;;;;47.80;29.50;;;;;;;4.15;83.47;100151.63;99458;1174;75294;-61
2021/03/04 06:19:01;;;;;;;49.10;29.90;;;;;;;4.18;83.30;100145.98;99429;1174;89981;-61
2021/03/04 06:21:25;;;;;;;49.20;29.10;;;;;;;4.22;83.33;100151.86;99431;1171;82322;-61
2021/03/04 06:23:34;;;;;;;53.10;31.60;;;;;;;4.20;83.20;100145.84;99449;1171;67206;-68
2021/03/04 06:25:41;;;;;;;49.10;30.20;;;;;;;4.32;83.06;100141.91;99428;1174;87478;-68
2021/03/04 06:27:49;;;;;;;56.85;30.05;;;;;;;4.45;83.04;100145.04;99448;1171;74427;-61
2021/03/04 06:29:56;;;;;;;47.50;30.20;;;;;;;4.59;82.91;100144.44;99448;1167;88447;-61
2021/03/04 06:32:06;;;;;;;45.65;28.70;;;;;;;4.59;82.91;100141.77;99425;1174;82932;-68
2021/03/04 06:34:22;;;;;;;46.80;28.60;;;;;;;4.62;82.65;100142.30;99441;1174;66883;-68
2021/03/04 06:36:27;;;;;;;47.03;28.20;;;;;;;4.67;82.59;100147.16;99444;1174;87235;-66
2021/03/04 06:38:33;;;;;;;46.25;28.55;;;;;;;4.73;82.40;100138.52;99447;1174;75849;-67
2021/03/04 06:40:39;;;;;;;46.43;26.97;;;;;;;4.80;82.71;100138.73;99449;1174;89337;-68
2021/03/04 06:42:48;;;;;;;49.75;28.80;;;;;;;4.88;82.68;100142.30;99431;1171;82773;-62
2021/03/04 06:44:56;;;;;;;46.00;27.70;;;;;;;4.94;82.70;100147.02;99444;1167;66986;-61
2021/03/04 06:47:02;;;;;;;46.23;28.00;;;;;;;4.98;82.42;100143.00;99425;1174;87303;-62
2021/03/04 06:49:08;;;;;;;45.77;28.13;;;;;;;5.06;82.30;100148.39;99444;1168;75681;-61
2021/03/04 06:51:13;;;;;;;46.55;28.95;;;;;;;5.07;82.32;100142.05;99431;1174;89445;-68
2021/03/04 06:53:21;;;;;;;51.40;28.45;;;;;;;5.14;82.44;100140.40;99435;1174;82780;-68
2021/03/04 06:55:27;;;;;;;45.73;27.50;;;;;;;5.20;82.09;100137.08;99454;1168;67060;-69
2021/03/04 06:57:34;;;;;;;45.40;28.20;;;;;;;5.33;82.17;100139.30;99443;1174;86666;-62
2021/03/04 06:59:45;;;;;;;47.10;26.90;;;;;;;5.38;82.13;100128.95;99458;1168;74742;-62
2021/03/04 07:01:50;;;;;;;47.80;28.20;;;;;;;5.52;81.94;100144.38;99442;1174;90218;-68
2021/03/04 07:03:59;;;;;;;45.30;28.40;;;;;;;5.71;82.38;100129.88;99427;1168;82287;-67
2021/03/04 07:06:07;;;;;;;48.10;28.30;;;;;;;5.89;82.57;100134.12;99444;1174;66835;-70
2021/03/04 07:08:14;;;;;;;47.20;29.80;;;;;;;6.18;82.51;100143.53;99437;1174;87827;-62
2021/03/04 07:10:25;;;;;;;51.95;29.90;;;;;;;6.38;82.20;100136.80;99452;1171;75374;-62
2021/03/04 07:12:32;;;;;;;47.40;28.85;;;;;;;6.59;81.85;100131.77;99443;1168;89606;-70
2021/03/04 07:14:39;;;;;;;49.55;29.75;;;;;;;6.81;82.13;100140.95;99434;1174;82121;-67
2021/03/04 07:16:47;;;;;;;46.60;30.10;;;;;;;6.92;81.93;100143.27;99437;1174;67034;-62
2021/03/04 07:18:55;;;;;;;44.40;29.40;;;;;;;6.99;81.61;100152.30;99433;1171;87108;-59
2021/03/04 07:21:03;;;;;;;47.50;29.55;;;;;;;7.08;81.10;100145.90;99452;1171;75147;-63
2021/03/04 07:23:11;;;;;;;45.65;29.00;;;;;;;7.08;81.07;100146.73;99443;1171;88723;-70
2021/03/04 07:25:18;;;;;;;45.15;30.45;;;;;;;7.06;81.00;100148.73;99424;1174;81935;-69
2021/03/04 07:27:24;;;;;;;45.40;29.30;;;;;;;7.10;81.06;100147.40;99447;1171;66928;-63
2021/03/04 07:29:33;;;;;;;44.80;27.55;;;;;;;7.08;80.42;100148.58;99435;1171;87168;-61
2021/03/04 07:31:42;;;;;;;44.15;27.70;;;;;;;7.06;80.66;100148.73;99461;1174;76090;-67
2021/03/04 07:33:49;;;;;;;45.80;28.90;;;;;;;6.94;80.26;100141.23;99447;1171;88469;-67
2021/03/04 07:36:01;;;;;;;44.45;28.35;;;;;;;6.76;80.11;100145.96;99430;1174;83025;-66
2021/03/04 07:38:07;;;;;;;43.85;26.40;;;;;;;6.56;79.79;100134.78;99449;1168;67132;-65
2021/03/04 07:40:17;;;;;;;41.10;24.50;;;;;;;6.45;79.74;100135.98;99437;1171;88378;-68
2021/03/04 07:42:26;;;;;;;38.50;26.40;;;;;;;6.42;79.89;100144.36;99447;1174;75567;-63
2021/03/04 07:44:36;;;;;;;40.40;25.70;;;;;;;6.42;79.47;100147.05;99438;1174;89620;-62
2021/03/04 07:46:53;;;;;;;39.57;25.30;;;;;;;6.46;80.23;100143.00;99425;1174;82255;-63
2021/03/04 07:49:00;;;;;;;41.80;27.50;;;;;;;6.61;80.29;100153.05;99443;1171;67167;-62
2021/03/04 07:51:10;;;;;;;41.00;26.50;;;;;;;6.71;79.64;100151.01;99437;1171;86364;-68
2021/03/04 07:53:17;;;;;;;42.30;27.50;;;;;;;6.72;79.91;100136.59;99452;1174;75309;-63
2021/03/04 07:55:24;;;;;;;44.55;28.85;;;;;;;6.87;80.27;100148.29;99449;1174;89821;-64
2021/03/04 07:57:30;;;;;;;47.10;29.40;;;;;;;6.98;79.38;100138.02;99425;1174;82794;-62
2021/03/04 07:59:53;;;;;;;47.90;31.10;;;;;;;6.99;79.64;100136.18;99452;1174;67014;-62
2021/03/04 08:02:06;;;;;;;44.45;28.95;;;;;;;7.25;79.21;100134.05;99434;1171;88131;-69
2021/03/04 08:04:23;;;;;;;44.10;29.70;;;;;;;7.49;79.24;100143.88;99454;1167;74710;-69
2021/03/04 08:06:28;;;;;;;51.70;33.00;;;;;;;7.56;78.81;100137.61;99441;1174;89672;-62
2021/03/04 08:08:41;;;;;;;50.10;34.10;;;;;;;7.81;78.90;100134.77;99420;1171;81934;-62
2021/03/04 08:10:54;;;;;;;47.55;33.80;;;;;;;7.96;78.30;100125.78;99435;1174;66864;-63
2021/03/04 08:13:01;;;;;;;49.20;34.95;;;;;;;8.08;77.70;100126.17;99425;1171;87951;-61
2021/03/04 08:15:13;;;;;;;46.90;34.40;;;;;;;8.01;77.40;100131.45;99448;1174;76042;-63
2021/03/04 08:17:19;;;;;;;49.90;37.40;;;;;;;7.80;76.34;100138.50;99437;1174;89628;-60
2021/03/04 08:19:29;;;;;;;66.00;45.00;;;;;;;7.56;76.38;100148.36;99428;1174;82868;-63
2021/03/04 08:21:42;;;;;;;67.50;47.60;;;;;;;7.41;76.64;100160.04;99438;1175;66895;-66
2021/03/04 08:23:49;;;;;;;71.65;49.90;;;;;;;7.25;76.38;100152.05;99441;1173;86361;-69
2021/03/04 08:25:57;;;;;;;82.30;56.30;;;;;;;7.09;76.85;100160.98;99443;1171;74610;-70
2021/03/04 08:28:05;;;;;;;67.90;48.70;;;;;;;7.02;76.78;100155.48;99444;1171;89135;-60
2021/03/04 08:30:14;;;;;;;58.30;43.40;;;;;;;6.83;76.34;100158.55;99429;1174;82113;-60
2021/03/04 08:32:19;;;;;;;57.40;43.60;;;;;;;6.67;76.96;100155.91;99449;1174;68730;-60
2021/03/04 08:34:38;;;;;;;58.40;42.70;;;;;;;6.70;76.50;100160.94;99434;1167;87044;-60
2021/03/04 08:36:46;;;;;;;59.10;43.25;;;;;;;6.68;76.96;100162.08;99453;1167;75374;-67
2021/03/04 08:38:52;;;;;;;53.10;39.50;;;;;;;6.65;76.66;100159.77;99443;1174;89966;-70
2021/03/04 08:41:01;;;;;;;50.65;38.05;;;;;;;6.67;76.91;100169.33;99426;1168;82935;-69
2021/03/04 08:43:15;;;;;;;55.40;39.75;;;;;;;6.65;76.73;100170.50;99436;1167;67031;-70
2021/03/04 08:45:33;;;;;;;50.60;38.20;;;;;;;6.69;76.92;100158.41;99445;1174;87164;-68
2021/03/04 08:47:42;;;;;;;51.83;36.67;;;;;;;6.54;76.35;100172.50;99455;1174;75318;-62
2021/03/04 08:49:56;;;;;;;56.45;39.55;;;;;;;6.45;76.91;100178.06;99436;1174;89250;-61
2021/03/04 08:52:00;;;;;;;;;;;;;;;6.44;76.44;100173.69;99445;1174;83190;-61
2021/03/04 08:54:07;;;;;;;56.30;37.33;;;;;;;6.38;76.34;100177.88;99454;1174;66758;-61
2021/03/04 08:56:13;;;;;;;53.45;32.95;;;;;;;6.28;77.12;100181.74;99428;1174;87749;-62
2021/03/04 08:58:23;;;;;;;47.37;33.03;;;;;;;6.28;76.62;100179.91;99452;1174;74729;-73
2021/03/04 09:00:29;;;;;;;43.03;29.83;;;;;;;6.28;76.73;100190.64;99441;1174;89702;-70
2021/03/04 09:02:34;;;;;;;44.50;30.80;;;;;;;6.17;76.13;100200.84;99415;1171;81747;-68
2021/03/04 09:04:46;;;;;;;50.00;32.60;;;;;;;6.14;75.94;100202.02;99445;1171;66988;-68
2021/03/04 09:06:52;;;;;;;42.17;28.87;;;;;;;5.87;75.97;100210.34;99432;1167;86272;-61
2021/03/04 09:08:59;;;;;;;42.55;29.80;;;;;;;5.71;76.11;100200.36;99447;1174;75204;-61
2021/03/04 09:11:06;;;;;;;45.53;30.47;;;;;;;5.66;76.00;100204.56;99446;1170;89177;-60
2021/03/04 09:13:18;;;;;;;41.97;29.60;;;;;;;5.63;76.27;100211.06;99413;1171;83138;-69
2021/03/04 09:15:27;;;;;;;46.15;32.30;;;;;;;5.52;76.30;100210.54;99447;1174;66861;-67
2021/03/04 09:17:41;;;;;;;45.40;29.40;;;;;;;5.53;76.10;100213.05;99444;1171;87097;-67
2021/03/04 09:19:55;;;;;;;47.40;30.10;;;;;;;5.44;76.05;100219.36;99451;1174;75933;-67
2021/03/04 09:22:08;;;;;;;43.33;30.70;;;;;;;5.40;76.63;100217.17;99442;1174;89800;-61
2021/03/04 09:24:19;;;;;;;48.70;31.95;;;;;;;5.36;76.69;100222.84;99426;1171;81974;-61
2021/03/04 09:26:31;;;;;;;46.20;31.43;;;;;;;5.48;76.50;100227.92;99445;1168;67160;-65
2021/03/04 09:28:42;;;;;;;47.90;32.40;;;;;;;5.50;76.58;100220.55;99434;1171;87427;-61
2021/03/04 09:30:47;;;;;;;44.43;29.87;;;;;;;5.40;76.66;100218.02;99447;1174;75811;-62
2021/03/04 09:32:54;;;;;;;44.70;29.60;;;;;;;5.48;76.82;100223.41;99442;1171;89174;-69
2021/03/04 09:35:00;;;;;;;43.90;31.03;;;;;;;5.40;76.24;100223.38;99429;1174;81900;-67
2021/03/04 09:37:14;;;;;;;43.30;28.90;;;;;;;5.35;76.51;100218.51;99449;1174;67165;-61
2021/03/04 09:39:23;;;;;;;45.85;29.35;;;;;;;5.38;76.39;100220.02;99427;1174;88053;-62
2021/03/04 09:41:29;;;;;;;44.90;29.45;;;;;;;5.28;76.03;100228.16;99451;1175;75716;-67
2021/03/04 09:43:42;;;;;;;47.70;31.30;;;;;;;5.18;75.81;100214.06;99439;1167;89554;-68
2021/03/04 09:45:53;;;;;;;44.75;30.15;;;;;;;5.27;75.94;100223.80;99419;1168;81839;-68
2021/03/04 09:47:59;;;;;;;41.60;28.50;;;;;;;5.16;75.94;100221.42;99452;1174;67082;-67